Airfield :







YOU CAN JOIN US ON...

 
LOGIN :

Register | Disclaimer

   EN    FR    IT 

 









Legend :    VFR   Marginal VFR   IFR   Intensive IFR   Very Intensive IFR
Visi :
Ceiling :
>= 8 km
>= 3000ft
5 to 8 km
1000 to 3000 ft
1500m to 5 km
500 to 1000 ft
800 to 1500m
200 to 500 ft
< 800m
< 200 ft
Symbols :   Thunderstorms  Fog  Heavy snow  Heavy precipitations  Wind > 20 kt






- Airport Elevation : 930 ft


KEFK - Newport State

CURRENT METAR :
  • 090715Z AUTO 16005KT 7SM SCT023 OVC033 22/21 A2976 RMK AO2 T02200205

EXPIRED METARs :
  • 090655Z AUTO 00000KT 2SM RA OVC023 22/21 A2977 RMK AO2 VIS 1V5 T02210207
  • 090635Z AUTO 00000KT 10SM OVC023 22/21 A2976 RMK AO2 T02230210
  • 090615Z AUTO 19004KT 10SM -RA OVC023 23/21 A2977 RMK AO2 T02250211
  • 090555Z AUTO 20006KT 10SM RA BKN021 BKN026 OVC037 23/21 A2978 RMK AO2 T02250210
  • 090535Z AUTO 22006KT 10SM SCT035 BKN046 OVC055 22/21 A2978 RMK AO2 T02230210
  • 090515Z AUTO 21004KT 10SM SCT029 BKN060 OVC070 22/21 A2979 RMK AO2 T02220208
  • 090455Z AUTO 20005KT 5SM RA BKN023 BKN031 OVC035 23/21 A2979 RMK AO2 T02250211
  • 090435Z AUTO 24005KT 5SM DZ SCT023 OVC031 23/21 A2980 RMK AO2 T02270212

TAF KEFK
Valid from the 09 at 06:00 until the 10 at 06:00 UTC


090539Z 0906/1006 17007KT P6SM -SHRA SCT025 OVC035
TEMPO 0906/0909 4SM -SHRA BR BKN025
FM090900 17005KT 4SM -SHRA BR OVC015 WS020/26035KT
FM091100 29005KT P6SM VCSH OVC007
FM091300 33006KT P6SM OVC015
FM100400 00000KT P6SM BKN015
KZBW FIR / North America



MET'MAP, your aeronautical weather chart ! - Copyright ORBIFLY December 2007 - Disclaimer

ORBIFLY MET'MAP TEAM :

Programming & Development : Alexandra Zaïnal
Original concept : Baudouin d'Aumeries
Technical & hardware support : Manuel Goepfert
Assistance : Marc-Olivier Méhu




SOURCES & CREDITS :

   NOAA